createdAt,value
2023-03-22T00:02:26.313Z,3.13
2023-03-22T00:04:54.673Z,1.05
2023-03-22T00:07:22.887Z,2.55
2023-03-22T00:09:52.648Z,1.48
2023-03-22T00:12:20.831Z,2.03
2023-03-22T00:14:49.597Z,6.50
2023-03-22T00:17:18.508Z,6.07
2023-03-22T00:19:47.526Z,6.88
2023-03-22T00:22:16.373Z,4.93
2023-03-22T00:24:44.838Z,7.10
2023-03-22T00:27:14.400Z,6.18
2023-03-22T00:29:42.622Z,7.18
2023-03-22T00:32:10.818Z,7.05
2023-03-22T00:34:38.999Z,4.55
2023-03-22T00:37:08.171Z,4.63
2023-03-22T00:39:36.400Z,10.55
2023-03-22T00:42:05.387Z,5.50
2023-03-22T00:44:35.103Z,7.53
2023-03-22T00:47:03.363Z,3.97
2023-03-22T00:49:31.734Z,7.50
2023-03-22T00:51:59.883Z,5.93
2023-03-22T00:54:28.032Z,7.80
2023-03-22T00:56:56.320Z,1.33
2023-03-22T00:59:24.809Z,2.75
2023-03-22T01:01:54.453Z,1.63
2023-03-22T01:04:26.375Z,3.53
2023-03-22T01:06:59.381Z,2.65
2023-03-22T01:09:31.066Z,3.30
2023-03-22T01:11:59.947Z,5.50
2023-03-22T01:14:28.618Z,10.43
2023-03-22T01:16:58.541Z,11.45
2023-03-22T01:19:27.645Z,8.10
2023-03-22T01:21:56.276Z,13.30
2023-03-22T01:24:25.079Z,11.45
2023-03-22T01:26:53.447Z,12.82
2023-03-22T01:29:21.983Z,13.60
2023-03-22T01:31:50.195Z,18.33
2023-03-22T01:34:19.961Z,15.18
2023-03-22T01:36:48.113Z,16.33
2023-03-22T01:39:16.547Z,25.90
2023-03-22T01:41:44.878Z,30.77
2023-03-22T01:44:15.607Z,24.23
2023-03-22T01:46:44.846Z,25.52
2023-03-22T01:49:17.224Z,19.23
2023-03-22T01:51:50.733Z,17.60
2023-03-22T01:54:26.231Z,22.75
2023-03-22T01:56:54.502Z,23.75
2023-03-22T01:59:23.638Z,22.42
2023-03-22T02:01:51.898Z,16.83
2023-03-22T02:04:23.506Z,21.52
2023-03-22T02:06:58.036Z,20.67
2023-03-22T02:09:26.243Z,18.77
2023-03-22T02:12:06.979Z,17.33
2023-03-22T02:14:59.771Z,21.53
2023-03-22T02:17:35.421Z,17.30
2023-03-22T02:20:41.929Z,28.67
2023-03-22T02:23:54.496Z,16.38
2023-03-22T02:26:53.513Z,22.58
2023-03-22T02:29:30.182Z,21.40
2023-03-22T02:32:40.053Z,23.38
2023-03-22T02:35:34.698Z,23.65
2023-03-22T02:38:45.965Z,24.40
2023-03-22T02:41:22.926Z,27.70
2023-03-22T02:44:02.991Z,20.52
2023-03-22T02:46:38.982Z,21.70
2023-03-22T02:49:16.036Z,23.75
2023-03-22T02:51:48.072Z,24.23
2023-03-22T02:54:23.962Z,20.98
2023-03-22T02:57:00.446Z,18.73
2023-03-22T02:59:32.622Z,24.95
2023-03-22T03:02:04.601Z,22.27
2023-03-22T03:04:36.697Z,25.92
2023-03-22T03:07:09.495Z,22.58
2023-03-22T03:09:39.336Z,31.13
2023-03-22T03:12:16.000Z,24.05
2023-03-22T03:14:44.116Z,20.92
2023-03-22T03:17:23.497Z,25.33
2023-03-22T03:20:02.891Z,21.15
2023-03-22T03:22:46.103Z,15.88
2023-03-22T03:25:22.851Z,26.13
2023-03-22T03:28:01.228Z,23.25
2023-03-22T03:30:35.475Z,19.73
2023-03-22T03:33:10.624Z,17.10
2023-03-22T03:35:43.786Z,18.23
2023-03-22T03:38:15.280Z,13.00
2023-03-22T03:43:16.823Z,20.67
2023-03-22T03:45:46.211Z,33.20
2023-03-22T03:48:20.146Z,15.73
2023-03-22T03:50:50.439Z,18.27
2023-03-22T03:53:18.588Z,13.55
2023-03-22T03:55:46.731Z,15.88
2023-03-22T03:58:17.326Z,17.75
2023-03-22T04:00:46.848Z,18.15
2023-03-22T04:03:15.884Z,23.73
2023-03-22T04:05:44.159Z,19.92
2023-03-22T04:08:12.381Z,17.15
2023-03-22T04:10:40.985Z,13.90
2023-03-22T04:13:09.299Z,25.00
2023-03-22T04:15:38.846Z,17.60
2023-03-22T04:18:07.238Z,28.13
2023-03-22T04:20:35.526Z,17.45
2023-03-22T04:23:03.691Z,23.45
2023-03-22T04:25:34.017Z,19.83
2023-03-22T04:28:04.429Z,24.45
2023-03-22T04:30:36.439Z,17.33
2023-03-22T04:33:07.322Z,19.00
2023-03-22T04:35:35.852Z,22.52
2023-03-22T04:38:04.147Z,15.73
2023-03-22T04:40:36.627Z,13.05
2023-03-22T04:43:05.099Z,19.08
2023-03-22T04:45:36.059Z,23.48
2023-03-22T04:48:07.973Z,14.85
2023-03-22T04:50:36.078Z,24.38
2023-03-22T04:53:04.251Z,18.70
2023-03-22T04:55:34.285Z,24.80
2023-03-22T04:58:02.543Z,22.58
2023-03-22T05:00:30.721Z,21.67
2023-03-22T05:02:59.426Z,16.35
2023-03-22T05:05:28.933Z,20.58
2023-03-22T05:07:57.644Z,17.15
2023-03-22T05:10:25.843Z,20.25
2023-03-22T05:12:53.981Z,17.80
2023-03-22T05:15:22.147Z,18.10
2023-03-22T05:17:50.309Z,14.27
2023-03-22T05:20:18.970Z,16.10
2023-03-22T05:22:50.658Z,15.23
2023-03-22T05:25:19.020Z,23.48
2023-03-22T05:27:47.049Z,12.32
2023-03-22T05:30:15.716Z,16.25
2023-03-22T05:32:44.283Z,22.38
2023-03-22T05:35:13.025Z,20.08
2023-03-22T05:37:41.640Z,31.80
2023-03-22T05:40:12.655Z,17.27
2023-03-22T05:42:40.845Z,19.75
2023-03-22T05:45:10.481Z,21.25
2023-03-22T05:47:39.637Z,24.70
2023-03-22T05:50:09.779Z,15.75
2023-03-22T05:52:37.949Z,20.88
2023-03-22T05:55:07.421Z,20.75
2023-03-22T05:57:36.941Z,19.85
2023-03-22T06:00:10.544Z,19.83
2023-03-22T06:02:38.735Z,22.95
2023-03-22T06:05:07.949Z,22.48
2023-03-22T06:07:35.999Z,26.95
2023-03-22T06:10:04.259Z,21.73
2023-03-22T06:12:32.696Z,22.75
2023-03-22T06:15:02.273Z,28.80
2023-03-22T06:17:30.728Z,24.48
2023-03-22T06:19:58.963Z,21.52
2023-03-22T06:22:27.330Z,24.70
2023-03-22T06:24:55.509Z,29.42
2023-03-22T06:27:23.656Z,20.10
2023-03-22T06:29:54.811Z,24.77
2023-03-22T06:32:24.724Z,28.42
2023-03-22T06:34:52.765Z,16.23
2023-03-22T06:37:21.002Z,26.25
2023-03-22T06:39:49.445Z,22.30
2023-03-22T06:42:17.602Z,23.42
2023-03-22T06:44:45.831Z,23.23
2023-03-22T06:47:14.075Z,25.38
2023-03-22T06:49:43.698Z,28.20
2023-03-22T06:52:11.877Z,21.30
2023-03-22T06:54:39.956Z,28.75
2023-03-22T06:57:08.240Z,16.45
2023-03-22T06:59:36.440Z,24.10
2023-03-22T07:02:04.567Z,16.92
2023-03-22T07:04:33.310Z,15.23
2023-03-22T07:07:03.481Z,15.05
2023-03-22T07:09:31.737Z,19.67
2023-03-22T07:11:59.940Z,28.25
2023-03-22T07:14:28.037Z,23.23
2023-03-22T07:16:56.889Z,35.03
2023-03-22T07:19:25.844Z,18.23
2023-03-22T07:21:54.036Z,27.58
2023-03-22T07:24:23.571Z,20.58
2023-03-22T07:26:51.636Z,16.42
2023-03-22T07:29:19.715Z,17.23
2023-03-22T07:31:47.908Z,27.77
2023-03-22T07:34:16.456Z,23.98
2023-03-22T07:36:44.694Z,24.85
2023-03-22T07:39:12.964Z,26.42
2023-03-22T07:41:42.528Z,17.92
2023-03-22T07:44:17.768Z,20.88
2023-03-22T07:46:46.456Z,16.35
2023-03-22T07:49:15.340Z,19.45
2023-03-22T07:51:43.468Z,23.52
2023-03-22T07:54:14.060Z,20.67
2023-03-22T07:56:48.134Z,24.23
2023-03-22T07:59:16.553Z,27.30
2023-03-22T08:01:45.281Z,20.58
2023-03-22T08:04:13.473Z,33.33
2023-03-22T08:06:42.673Z,29.13
2023-03-22T08:09:10.728Z,17.70
2023-03-22T08:11:38.896Z,21.85
2023-03-22T08:14:08.950Z,25.33
2023-03-22T08:16:38.552Z,22.13
2023-03-22T08:19:07.559Z,22.45
2023-03-22T08:21:35.598Z,42.85
2023-03-22T08:24:03.791Z,16.20
2023-03-22T08:26:31.976Z,17.38
2023-03-22T08:29:00.038Z,24.23
2023-03-22T08:31:29.704Z,17.95
2023-03-22T08:33:57.922Z,21.02
2023-03-22T08:36:26.090Z,17.95
2023-03-22T08:38:54.443Z,24.45
2023-03-22T08:41:23.712Z,15.18
2023-03-22T08:43:52.221Z,28.08
2023-03-22T08:46:20.390Z,22.50
2023-03-22T08:48:51.584Z,17.02
2023-03-22T08:51:20.611Z,32.42
2023-03-22T08:53:49.573Z,23.25
2023-03-22T08:56:17.865Z,20.70
2023-03-22T08:58:46.896Z,31.05
2023-03-22T09:01:16.804Z,26.35
2023-03-22T09:03:45.020Z,23.73
2023-03-22T09:06:14.962Z,32.28
2023-03-22T09:08:43.265Z,23.33
2023-03-22T09:11:12.218Z,21.50
2023-03-22T09:13:40.925Z,20.83
2023-03-22T09:16:09.803Z,21.90
2023-03-22T09:18:38.261Z,18.73
2023-03-22T09:21:07.653Z,21.40
2023-03-22T09:23:38.419Z,17.25
2023-03-22T09:26:08.176Z,23.90
2023-03-22T09:28:37.653Z,23.55
2023-03-22T09:31:09.167Z,22.20
2023-03-22T09:33:38.966Z,18.45
2023-03-22T09:36:07.642Z,26.90
2023-03-22T09:38:37.504Z,17.95
2023-03-22T09:41:08.731Z,20.48
2023-03-22T09:43:39.276Z,21.75
2023-03-22T09:46:14.282Z,19.30
2023-03-22T09:48:48.395Z,24.55
2023-03-22T09:51:29.292Z,26.88
2023-03-22T09:53:58.995Z,23.33
2023-03-22T09:56:29.241Z,19.80
2023-03-22T09:59:07.765Z,17.85
2023-03-22T10:01:43.412Z,30.05
2023-03-22T10:04:34.560Z,20.38
2023-03-22T10:07:10.975Z,17.55
2023-03-22T10:09:50.642Z,21.42
2023-03-22T10:12:27.210Z,21.92
2023-03-22T10:15:05.680Z,22.33
2023-03-22T10:17:36.812Z,21.90
2023-03-22T10:20:09.629Z,20.35
2023-03-22T10:22:42.794Z,26.05
2023-03-22T10:25:18.835Z,21.65
2023-03-22T10:27:49.947Z,14.63
2023-03-22T10:30:22.897Z,24.00
2023-03-22T10:32:58.322Z,14.98
2023-03-22T10:35:27.193Z,17.58
2023-03-22T10:37:57.396Z,19.20
2023-03-22T10:40:30.143Z,17.55
2023-03-22T10:43:02.166Z,19.75
2023-03-22T10:45:33.314Z,22.52
2023-03-22T10:48:05.805Z,22.70
2023-03-22T10:50:37.118Z,26.60
2023-03-22T10:53:08.624Z,21.63
2023-03-22T10:58:14.949Z,22.88
2023-03-22T11:00:47.378Z,20.92
2023-03-22T11:03:30.125Z,19.58
2023-03-22T11:06:03.652Z,17.13
2023-03-22T11:08:40.382Z,18.15
2023-03-22T11:11:17.750Z,18.33
2023-03-22T11:13:51.770Z,16.00
2023-03-22T11:16:20.346Z,16.92
2023-03-22T11:18:48.792Z,11.45
2023-03-22T11:21:18.566Z,17.35
2023-03-22T11:23:55.559Z,13.35
2023-03-22T11:26:31.671Z,13.45
2023-03-22T11:29:15.140Z,13.88
2023-03-22T11:31:58.965Z,12.88
2023-03-22T11:34:29.998Z,12.10
2023-03-22T11:37:01.260Z,12.10
2023-03-22T11:39:30.730Z,14.10
2023-03-22T11:42:04.071Z,13.60
2023-03-22T11:44:35.960Z,12.10
2023-03-22T11:47:06.796Z,8.30
2023-03-22T11:49:43.960Z,9.20
2023-03-22T11:52:17.712Z,6.28
2023-03-22T11:54:49.120Z,8.50
2023-03-22T11:57:22.795Z,4.55
2023-03-22T11:59:58.766Z,6.35
2023-03-22T12:02:30.699Z,9.70
2023-03-22T12:05:06.055Z,5.60
2023-03-22T12:07:37.956Z,5.40
2023-03-22T12:10:13.303Z,9.30
2023-03-22T12:12:48.156Z,5.68
2023-03-22T12:15:21.428Z,8.68
2023-03-22T12:17:56.980Z,7.88
2023-03-22T12:20:39.195Z,5.82
2023-03-22T12:23:16.727Z,5.07
2023-03-22T12:25:50.699Z,8.20
2023-03-22T12:28:24.630Z,6.00
2023-03-22T12:30:56.259Z,3.35
2023-03-22T12:33:28.510Z,5.13
2023-03-22T12:36:00.002Z,6.20
2023-03-22T12:38:35.649Z,8.80
2023-03-22T12:41:07.356Z,6.68
2023-03-22T12:43:44.568Z,6.30
2023-03-22T12:46:18.925Z,3.58
2023-03-22T12:48:50.944Z,8.73
2023-03-22T12:51:19.254Z,5.68
2023-03-22T12:53:50.389Z,4.78
2023-03-22T12:56:21.456Z,9.73
2023-03-22T12:58:53.786Z,6.38
2023-03-22T13:01:29.751Z,6.88
2023-03-22T13:03:59.547Z,5.43
2023-03-22T13:06:34.546Z,6.40
2023-03-22T13:09:15.950Z,7.47
2023-03-22T13:11:45.507Z,7.50
2023-03-22T13:14:56.231Z,4.70
2023-03-22T13:17:51.285Z,10.32
2023-03-22T13:20:27.923Z,10.77
2023-03-22T13:23:28.905Z,3.97
2023-03-22T13:26:03.694Z,4.70
2023-03-22T13:28:37.419Z,5.72
2023-03-22T13:31:08.137Z,3.42
2023-03-22T13:33:38.950Z,4.67
2023-03-22T13:36:23.076Z,7.55
2023-03-22T13:38:56.341Z,5.22
2023-03-22T13:41:29.139Z,7.63
2023-03-22T13:43:59.570Z,8.10
2023-03-22T13:46:48.290Z,5.53
2023-03-22T13:49:36.635Z,5.15
2023-03-22T13:52:09.433Z,6.28
2023-03-22T13:54:43.788Z,9.60
2023-03-22T13:57:39.167Z,6.93
2023-03-22T14:00:20.698Z,7.35
2023-03-22T14:02:51.936Z,7.10
2023-03-22T14:05:24.383Z,11.73
2023-03-22T14:07:56.335Z,7.65
2023-03-22T14:10:29.898Z,4.32
2023-03-22T14:13:03.606Z,11.02
2023-03-22T14:15:35.829Z,8.98
2023-03-22T14:18:13.939Z,6.65
2023-03-22T14:20:42.935Z,10.32
